sensor_id;sensor_type;location;lat;lon;timestamp;P1;durP1;ratioP1;P2;durP2;ratioP2
76259;SDS011;65076;52.362;6.588;2023-02-21T00:01:42;41.05;;;21.27;;
76259;SDS011;65076;52.362;6.588;2023-02-21T00:04:28;32.85;;;17.02;;
76259;SDS011;65076;52.362;6.588;2023-02-21T00:07:13;36.13;;;19.80;;
76259;SDS011;65076;52.362;6.588;2023-02-21T00:09:59;38.72;;;19.77;;
76259;SDS011;65076;52.362;6.588;2023-02-21T00:12:45;30.42;;;15.48;;
76259;SDS011;65076;52.362;6.588;2023-02-21T00:15:31;37.95;;;19.65;;
76259;SDS011;65076;52.362;6.588;2023-02-21T00:18:17;33.10;;;17.15;;
76259;SDS011;65076;52.362;6.588;2023-02-21T00:21:03;29.15;;;14.55;;
76259;SDS011;65076;52.362;6.588;2023-02-21T00:23:49;37.67;;;20.10;;
76259;SDS011;65076;52.362;6.588;2023-02-21T00:26:34;33.63;;;17.00;;
76259;SDS011;65076;52.362;6.588;2023-02-21T00:29:21;37.55;;;18.58;;
76259;SDS011;65076;52.362;6.588;2023-02-21T00:32:06;37.47;;;19.88;;
76259;SDS011;65076;52.362;6.588;2023-02-21T00:34:52;38.88;;;19.20;;
76259;SDS011;65076;52.362;6.588;2023-02-21T00:37:37;38.35;;;18.80;;
76259;SDS011;65076;52.362;6.588;2023-02-21T00:40:23;35.83;;;18.60;;
76259;SDS011;65076;52.362;6.588;2023-02-21T00:43:09;34.05;;;18.75;;
76259;SDS011;65076;52.362;6.588;2023-02-21T00:45:56;33.78;;;17.75;;
76259;SDS011;65076;52.362;6.588;2023-02-21T00:48:42;42.17;;;19.08;;
76259;SDS011;65076;52.362;6.588;2023-02-21T00:51:28;31.15;;;16.98;;
76259;SDS011;65076;52.362;6.588;2023-02-21T00:54:13;31.27;;;14.57;;
76259;SDS011;65076;52.362;6.588;2023-02-21T00:56:59;24.73;;;12.73;;
76259;SDS011;65076;52.362;6.588;2023-02-21T00:59:44;26.55;;;15.48;;
76259;SDS011;65076;52.362;6.588;2023-02-21T01:02:31;32.50;;;17.27;;
76259;SDS011;65076;52.362;6.588;2023-02-21T01:05:17;20.25;;;12.23;;
76259;SDS011;65076;52.362;6.588;2023-02-21T01:08:02;31.45;;;18.10;;
76259;SDS011;65076;52.362;6.588;2023-02-21T01:10:48;28.40;;;16.83;;
76259;SDS011;65076;52.362;6.588;2023-02-21T01:13:33;29.40;;;13.65;;
76259;SDS011;65076;52.362;6.588;2023-02-21T01:16:19;32.55;;;16.60;;
76259;SDS011;65076;52.362;6.588;2023-02-21T01:19:06;28.10;;;16.00;;
76259;SDS011;65076;52.362;6.588;2023-02-21T01:21:51;24.88;;;11.88;;
76259;SDS011;65076;52.362;6.588;2023-02-21T01:24:37;28.42;;;14.90;;
76259;SDS011;65076;52.362;6.588;2023-02-21T01:27:22;30.33;;;16.33;;
76259;SDS011;65076;52.362;6.588;2023-02-21T01:30:08;29.75;;;16.38;;
76259;SDS011;65076;52.362;6.588;2023-02-21T01:32:55;29.88;;;14.52;;
76259;SDS011;65076;52.362;6.588;2023-02-21T01:35:42;25.13;;;12.35;;
76259;SDS011;65076;52.362;6.588;2023-02-21T01:38:27;25.70;;;13.60;;
76259;SDS011;65076;52.362;6.588;2023-02-21T01:41:12;31.85;;;14.20;;
76259;SDS011;65076;52.362;6.588;2023-02-21T01:43:58;27.88;;;15.38;;
76259;SDS011;65076;52.362;6.588;2023-02-21T01:46:46;23.48;;;14.05;;
76259;SDS011;65076;52.362;6.588;2023-02-21T01:49:32;23.77;;;13.80;;
76259;SDS011;65076;52.362;6.588;2023-02-21T01:52:22;22.80;;;13.65;;
76259;SDS011;65076;52.362;6.588;2023-02-21T01:55:09;29.90;;;14.35;;
76259;SDS011;65076;52.362;6.588;2023-02-21T01:57:55;25.52;;;14.60;;
76259;SDS011;65076;52.362;6.588;2023-02-21T02:00:41;26.27;;;13.00;;
76259;SDS011;65076;52.362;6.588;2023-02-21T02:03:28;24.52;;;13.27;;
76259;SDS011;65076;52.362;6.588;2023-02-21T02:06:15;21.42;;;11.18;;
76259;SDS011;65076;52.362;6.588;2023-02-21T02:09:08;31.75;;;16.55;;
76259;SDS011;65076;52.362;6.588;2023-02-21T02:12:13;29.77;;;16.73;;
76259;SDS011;65076;52.362;6.588;2023-02-21T02:15:11;27.58;;;15.63;;
76259;SDS011;65076;52.362;6.588;2023-02-21T02:27:35;26.88;;;14.70;;
76259;SDS011;65076;52.362;6.588;2023-02-21T02:37:03;34.35;;;12.88;;
76259;SDS011;65076;52.362;6.588;2023-02-21T02:39:42;35.20;;;17.13;;
76259;SDS011;65076;52.362;6.588;2023-02-21T02:42:21;18.63;;;12.88;;
76259;SDS011;65076;52.362;6.588;2023-02-21T02:45:04;30.80;;;16.23;;
76259;SDS011;65076;52.362;6.588;2023-02-21T02:47:41;19.10;;;11.40;;
76259;SDS011;65076;52.362;6.588;2023-02-21T02:50:12;29.80;;;16.85;;
76259;SDS011;65076;52.362;6.588;2023-02-21T02:52:50;31.48;;;13.15;;
76259;SDS011;65076;52.362;6.588;2023-02-21T02:55:23;27.80;;;14.82;;
76259;SDS011;65076;52.362;6.588;2023-02-21T02:58:02;21.88;;;11.40;;
76259;SDS011;65076;52.362;6.588;2023-02-21T03:00:32;28.85;;;15.77;;
76259;SDS011;65076;52.362;6.588;2023-02-21T03:03:09;25.08;;;13.68;;
76259;SDS011;65076;52.362;6.588;2023-02-21T03:06:04;38.67;;;17.50;;
76259;SDS011;65076;52.362;6.588;2023-02-21T03:08:52;34.67;;;14.73;;
76259;SDS011;65076;52.362;6.588;2023-02-21T03:11:29;29.48;;;16.25;;
76259;SDS011;65076;52.362;6.588;2023-02-21T03:13:58;31.45;;;16.77;;
76259;SDS011;65076;52.362;6.588;2023-02-21T03:16:37;25.48;;;11.95;;
76259;SDS011;65076;52.362;6.588;2023-02-21T03:19:12;34.00;;;17.67;;
76259;SDS011;65076;52.362;6.588;2023-02-21T03:21:47;21.55;;;11.05;;
76259;SDS011;65076;52.362;6.588;2023-02-21T03:24:22;28.10;;;14.55;;
76259;SDS011;65076;52.362;6.588;2023-02-21T03:26:54;34.47;;;15.68;;
76259;SDS011;65076;52.362;6.588;2023-02-21T03:29:26;22.73;;;11.73;;
76259;SDS011;65076;52.362;6.588;2023-02-21T03:31:57;31.90;;;14.48;;
76259;SDS011;65076;52.362;6.588;2023-02-21T03:34:39;34.78;;;15.52;;
76259;SDS011;65076;52.362;6.588;2023-02-21T03:37:10;34.40;;;17.23;;
76259;SDS011;65076;52.362;6.588;2023-02-21T03:40:28;30.13;;;15.40;;
76259;SDS011;65076;52.362;6.588;2023-02-21T03:42:58;33.20;;;16.02;;
76259;SDS011;65076;52.362;6.588;2023-02-21T03:45:28;31.10;;;15.32;;
76259;SDS011;65076;52.362;6.588;2023-02-21T03:47:56;35.95;;;17.42;;
76259;SDS011;65076;52.362;6.588;2023-02-21T03:50:24;23.55;;;11.77;;
76259;SDS011;65076;52.362;6.588;2023-02-21T03:52:52;35.97;;;17.35;;
76259;SDS011;65076;52.362;6.588;2023-02-21T03:55:21;34.78;;;16.85;;
76259;SDS011;65076;52.362;6.588;2023-02-21T03:57:50;37.42;;;18.15;;
76259;SDS011;65076;52.362;6.588;2023-02-21T04:00:18;41.22;;;18.73;;
76259;SDS011;65076;52.362;6.588;2023-02-21T04:02:46;29.27;;;15.82;;
76259;SDS011;65076;52.362;6.588;2023-02-21T04:05:14;32.45;;;16.95;;
76259;SDS011;65076;52.362;6.588;2023-02-21T04:07:42;29.25;;;14.73;;
76259;SDS011;65076;52.362;6.588;2023-02-21T04:10:10;35.72;;;15.52;;
76259;SDS011;65076;52.362;6.588;2023-02-21T04:12:38;36.83;;;16.33;;
76259;SDS011;65076;52.362;6.588;2023-02-21T04:15:08;24.15;;;13.27;;
76259;SDS011;65076;52.362;6.588;2023-02-21T04:17:38;32.00;;;15.88;;
76259;SDS011;65076;52.362;6.588;2023-02-21T04:20:06;34.72;;;17.95;;
76259;SDS011;65076;52.362;6.588;2023-02-21T04:22:34;39.75;;;18.55;;
76259;SDS011;65076;52.362;6.588;2023-02-21T04:25:02;33.17;;;17.63;;
76259;SDS011;65076;52.362;6.588;2023-02-21T04:27:31;36.40;;;17.98;;
76259;SDS011;65076;52.362;6.588;2023-02-21T04:29:59;38.38;;;17.20;;
76259;SDS011;65076;52.362;6.588;2023-02-21T04:32:29;35.00;;;16.45;;
76259;SDS011;65076;52.362;6.588;2023-02-21T04:34:57;36.95;;;18.55;;
76259;SDS011;65076;52.362;6.588;2023-02-21T04:37:25;32.30;;;17.60;;
76259;SDS011;65076;52.362;6.588;2023-02-21T04:39:53;32.45;;;16.52;;
76259;SDS011;65076;52.362;6.588;2023-02-21T04:42:21;36.85;;;16.63;;
76259;SDS011;65076;52.362;6.588;2023-02-21T04:44:49;32.70;;;16.95;;
76259;SDS011;65076;52.362;6.588;2023-02-21T04:47:25;35.50;;;17.27;;
76259;SDS011;65076;52.362;6.588;2023-02-21T04:49:55;34.50;;;17.83;;
76259;SDS011;65076;52.362;6.588;2023-02-21T04:54:51;34.85;;;17.25;;
76259;SDS011;65076;52.362;6.588;2023-02-21T04:57:20;34.75;;;18.48;;
76259;SDS011;65076;52.362;6.588;2023-02-21T04:59:48;38.35;;;20.13;;
76259;SDS011;65076;52.362;6.588;2023-02-21T05:02:22;39.92;;;18.15;;
76259;SDS011;65076;52.362;6.588;2023-02-21T05:04:50;35.33;;;18.05;;
76259;SDS011;65076;52.362;6.588;2023-02-21T05:07:19;32.80;;;15.98;;
76259;SDS011;65076;52.362;6.588;2023-02-21T05:09:47;24.80;;;14.73;;
76259;SDS011;65076;52.362;6.588;2023-02-21T05:12:15;24.20;;;13.70;;
76259;SDS011;65076;52.362;6.588;2023-02-21T05:14:43;34.28;;;17.23;;
76259;SDS011;65076;52.362;6.588;2023-02-21T05:17:11;39.75;;;19.25;;
76259;SDS011;65076;52.362;6.588;2023-02-21T05:19:39;36.20;;;17.73;;
76259;SDS011;65076;52.362;6.588;2023-02-21T05:22:07;43.20;;;19.80;;
76259;SDS011;65076;52.362;6.588;2023-02-21T05:24:39;39.38;;;17.90;;
76259;SDS011;65076;52.362;6.588;2023-02-21T05:27:08;37.05;;;17.88;;
76259;SDS011;65076;52.362;6.588;2023-02-21T05:29:41;40.53;;;19.77;;
76259;SDS011;65076;52.362;6.588;2023-02-21T05:32:10;29.75;;;16.15;;
76259;SDS011;65076;52.362;6.588;2023-02-21T05:34:38;32.58;;;13.55;;
76259;SDS011;65076;52.362;6.588;2023-02-21T05:37:09;41.55;;;18.88;;
76259;SDS011;65076;52.362;6.588;2023-02-21T05:39:39;40.67;;;18.55;;
76259;SDS011;65076;52.362;6.588;2023-02-21T05:42:07;42.47;;;18.63;;
76259;SDS011;65076;52.362;6.588;2023-02-21T05:44:35;40.63;;;20.08;;
76259;SDS011;65076;52.362;6.588;2023-02-21T05:47:03;39.72;;;18.08;;
76259;SDS011;65076;52.362;6.588;2023-02-21T05:49:32;41.40;;;19.45;;
76259;SDS011;65076;52.362;6.588;2023-02-21T05:52:00;45.28;;;19.85;;
76259;SDS011;65076;52.362;6.588;2023-02-21T05:54:30;41.10;;;19.35;;
76259;SDS011;65076;52.362;6.588;2023-02-21T05:56:59;47.58;;;20.17;;
76259;SDS011;65076;52.362;6.588;2023-02-21T05:59:27;51.67;;;21.13;;
76259;SDS011;65076;52.362;6.588;2023-02-21T06:01:55;49.25;;;20.83;;
76259;SDS011;65076;52.362;6.588;2023-02-21T06:04:23;47.00;;;19.77;;
76259;SDS011;65076;52.362;6.588;2023-02-21T06:06:51;41.35;;;18.15;;
76259;SDS011;65076;52.362;6.588;2023-02-21T06:09:19;35.78;;;15.25;;
76259;SDS011;65076;52.362;6.588;2023-02-21T06:11:47;50.65;;;21.67;;
76259;SDS011;65076;52.362;6.588;2023-02-21T06:14:17;52.55;;;21.92;;
76259;SDS011;65076;52.362;6.588;2023-02-21T06:16:47;42.78;;;19.05;;
76259;SDS011;65076;52.362;6.588;2023-02-21T06:19:15;48.45;;;21.95;;
76259;SDS011;65076;52.362;6.588;2023-02-21T06:21:44;51.53;;;20.67;;
76259;SDS011;65076;52.362;6.588;2023-02-21T06:24:12;35.20;;;17.83;;
76259;SDS011;65076;52.362;6.588;2023-02-21T06:26:40;51.72;;;23.08;;
76259;SDS011;65076;52.362;6.588;2023-02-21T06:29:10;53.60;;;21.63;;
76259;SDS011;65076;52.362;6.588;2023-02-21T06:31:40;56.10;;;22.50;;
76259;SDS011;65076;52.362;6.588;2023-02-21T06:34:08;54.20;;;21.80;;
76259;SDS011;65076;52.362;6.588;2023-02-21T06:36:36;53.10;;;23.27;;
76259;SDS011;65076;52.362;6.588;2023-02-21T06:39:05;57.55;;;22.58;;
76259;SDS011;65076;52.362;6.588;2023-02-21T06:41:33;52.47;;;22.27;;
76259;SDS011;65076;52.362;6.588;2023-02-21T06:44:01;45.00;;;19.25;;
76259;SDS011;65076;52.362;6.588;2023-02-21T06:46:29;58.60;;;23.55;;
76259;SDS011;65076;52.362;6.588;2023-02-21T06:48:58;41.72;;;17.92;;
76259;SDS011;65076;52.362;6.588;2023-02-21T06:51:26;62.28;;;23.70;;
76259;SDS011;65076;52.362;6.588;2023-02-21T06:53:56;55.58;;;22.23;;
76259;SDS011;65076;52.362;6.588;2023-02-21T06:56:25;59.70;;;21.15;;
76259;SDS011;65076;52.362;6.588;2023-02-21T06:58:54;53.67;;;18.73;;
76259;SDS011;65076;52.362;6.588;2023-02-21T07:01:23;58.13;;;23.27;;
76259;SDS011;65076;52.362;6.588;2023-02-21T07:03:53;57.13;;;21.13;;
76259;SDS011;65076;52.362;6.588;2023-02-21T07:06:23;57.17;;;22.02;;
76259;SDS011;65076;52.362;6.588;2023-02-21T07:08:54;57.83;;;24.13;;
76259;SDS011;65076;52.362;6.588;2023-02-21T07:11:22;63.97;;;23.33;;
76259;SDS011;65076;52.362;6.588;2023-02-21T07:13:51;45.55;;;19.15;;
76259;SDS011;65076;52.362;6.588;2023-02-21T07:16:22;60.28;;;25.45;;
76259;SDS011;65076;52.362;6.588;2023-02-21T07:18:50;50.25;;;22.90;;
76259;SDS011;65076;52.362;6.588;2023-02-21T07:21:19;51.35;;;20.60;;
76259;SDS011;65076;52.362;6.588;2023-02-21T07:23:50;63.20;;;25.60;;
76259;SDS011;65076;52.362;6.588;2023-02-21T07:26:18;38.90;;;17.75;;
76259;SDS011;65076;52.362;6.588;2023-02-21T07:28:46;54.20;;;22.45;;
76259;SDS011;65076;52.362;6.588;2023-02-21T07:31:15;58.15;;;23.52;;
76259;SDS011;65076;52.362;6.588;2023-02-21T07:33:46;43.65;;;18.48;;
76259;SDS011;65076;52.362;6.588;2023-02-21T07:36:14;66.90;;;24.60;;
76259;SDS011;65076;52.362;6.588;2023-02-21T07:38:42;65.53;;;25.00;;
76259;SDS011;65076;52.362;6.588;2023-02-21T07:41:12;52.75;;;21.10;;
76259;SDS011;65076;52.362;6.588;2023-02-21T07:43:42;55.85;;;22.08;;
76259;SDS011;65076;52.362;6.588;2023-02-21T07:46:11;59.85;;;22.50;;
76259;SDS011;65076;52.362;6.588;2023-02-21T07:48:42;57.90;;;23.02;;
76259;SDS011;65076;52.362;6.588;2023-02-21T07:51:12;59.00;;;22.67;;
76259;SDS011;65076;52.362;6.588;2023-02-21T07:53:40;37.17;;;17.52;;
76259;SDS011;65076;52.362;6.588;2023-02-21T07:56:08;48.45;;;19.08;;
76259;SDS011;65076;52.362;6.588;2023-02-21T07:58:37;54.85;;;22.80;;
76259;SDS011;65076;52.362;6.588;2023-02-21T08:01:08;53.03;;;22.92;;
76259;SDS011;65076;52.362;6.588;2023-02-21T08:03:36;62.38;;;23.75;;
76259;SDS011;65076;52.362;6.588;2023-02-21T08:06:06;36.38;;;15.75;;
76259;SDS011;65076;52.362;6.588;2023-02-21T08:08:36;51.90;;;22.42;;
76259;SDS011;65076;52.362;6.588;2023-02-21T08:11:04;51.28;;;22.95;;
76259;SDS011;65076;52.362;6.588;2023-02-21T08:13:32;55.40;;;20.52;;
76259;SDS011;65076;52.362;6.588;2023-02-21T08:16:02;57.65;;;22.25;;
76259;SDS011;65076;52.362;6.588;2023-02-21T08:18:30;53.30;;;22.83;;
76259;SDS011;65076;52.362;6.588;2023-02-21T08:20:58;62.88;;;23.00;;
76259;SDS011;65076;52.362;6.588;2023-02-21T08:23:26;42.15;;;18.75;;
76259;SDS011;65076;52.362;6.588;2023-02-21T08:25:54;54.63;;;21.23;;
76259;SDS011;65076;52.362;6.588;2023-02-21T08:28:22;51.75;;;21.75;;
76259;SDS011;65076;52.362;6.588;2023-02-21T08:30:50;55.53;;;22.30;;
76259;SDS011;65076;52.362;6.588;2023-02-21T08:33:20;47.05;;;18.48;;
76259;SDS011;65076;52.362;6.588;2023-02-21T08:35:49;48.70;;;20.50;;
76259;SDS011;65076;52.362;6.588;2023-02-21T08:38:18;52.95;;;22.20;;
76259;SDS011;65076;52.362;6.588;2023-02-21T08:40:46;55.25;;;22.63;;
76259;SDS011;65076;52.362;6.588;2023-02-21T08:43:16;53.15;;;22.30;;
76259;SDS011;65076;52.362;6.588;2023-02-21T08:45:44;47.67;;;21.20;;
76259;SDS011;65076;52.362;6.588;2023-02-21T08:48:12;48.72;;;20.98;;
76259;SDS011;65076;52.362;6.588;2023-02-21T08:50:42;54.88;;;22.73;;
76259;SDS011;65076;52.362;6.588;2023-02-21T08:53:10;46.72;;;21.88;;
76259;SDS011;65076;52.362;6.588;2023-02-21T08:55:40;51.33;;;21.45;;
76259;SDS011;65076;52.362;6.588;2023-02-21T08:58:08;50.85;;;20.95;;
76259;SDS011;65076;52.362;6.588;2023-02-21T09:00:38;52.15;;;20.88;;
76259;SDS011;65076;52.362;6.588;2023-02-21T09:03:06;47.13;;;19.85;;
76259;SDS011;65076;52.362;6.588;2023-02-21T09:05:34;52.40;;;20.30;;
76259;SDS011;65076;52.362;6.588;2023-02-21T09:08:07;46.58;;;20.30;;
76259;SDS011;65076;52.362;6.588;2023-02-21T09:13:12;43.08;;;19.33;;
76259;SDS011;65076;52.362;6.588;2023-02-21T09:15:40;48.10;;;21.90;;
76259;SDS011;65076;52.362;6.588;2023-02-21T09:18:08;45.53;;;20.02;;
76259;SDS011;65076;52.362;6.588;2023-02-21T09:20:39;41.08;;;18.92;;
76259;SDS011;65076;52.362;6.588;2023-02-21T09:23:09;45.90;;;19.83;;
76259;SDS011;65076;52.362;6.588;2023-02-21T09:25:40;40.70;;;17.83;;
76259;SDS011;65076;52.362;6.588;2023-02-21T09:28:08;38.90;;;17.17;;
76259;SDS011;65076;52.362;6.588;2023-02-21T09:30:36;40.83;;;18.00;;
76259;SDS011;65076;52.362;6.588;2023-02-21T09:33:06;45.08;;;19.50;;
76259;SDS011;65076;52.362;6.588;2023-02-21T09:35:35;36.55;;;17.08;;
76259;SDS011;65076;52.362;6.588;2023-02-21T09:38:03;43.28;;;18.15;;
76259;SDS011;65076;52.362;6.588;2023-02-21T09:40:35;42.15;;;18.40;;
76259;SDS011;65076;52.362;6.588;2023-02-21T09:43:11;46.22;;;19.83;;
76259;SDS011;65076;52.362;6.588;2023-02-21T09:45:42;39.95;;;17.33;;
76259;SDS011;65076;52.362;6.588;2023-02-21T09:48:12;41.40;;;18.73;;
76259;SDS011;65076;52.362;6.588;2023-02-21T09:50:44;40.45;;;17.55;;
76259;SDS011;65076;52.362;6.588;2023-02-21T09:53:19;42.90;;;19.25;;
76259;SDS011;65076;52.362;6.588;2023-02-21T09:55:53;40.75;;;18.85;;
76259;SDS011;65076;52.362;6.588;2023-02-21T09:58:26;26.50;;;14.02;;
76259;SDS011;65076;52.362;6.588;2023-02-21T10:00:56;36.13;;;15.60;;
76259;SDS011;65076;52.362;6.588;2023-02-21T10:03:43;40.03;;;16.40;;
76259;SDS011;65076;52.362;6.588;2023-02-21T10:06:23;42.03;;;18.75;;
76259;SDS011;65076;52.362;6.588;2023-02-21T10:09:07;39.67;;;17.77;;
76259;SDS011;65076;52.362;6.588;2023-02-21T10:11:53;39.33;;;17.20;;
76259;SDS011;65076;52.362;6.588;2023-02-21T10:14:34;42.03;;;17.52;;
76259;SDS011;65076;52.362;6.588;2023-02-21T10:17:17;38.13;;;17.10;;
76259;SDS011;65076;52.362;6.588;2023-02-21T10:19:51;33.42;;;15.60;;
76259;SDS011;65076;52.362;6.588;2023-02-21T10:22:30;33.25;;;15.98;;
76259;SDS011;65076;52.362;6.588;2023-02-21T10:25:08;36.83;;;15.55;;
76259;SDS011;65076;52.362;6.588;2023-02-21T10:27:50;33.42;;;15.75;;
76259;SDS011;65076;52.362;6.588;2023-02-21T10:30:23;36.60;;;17.23;;
76259;SDS011;65076;52.362;6.588;2023-02-21T10:32:58;37.78;;;15.68;;
76259;SDS011;65076;52.362;6.588;2023-02-21T10:35:26;29.02;;;12.63;;
76259;SDS011;65076;52.362;6.588;2023-02-21T10:37:57;34.03;;;16.00;;
76259;SDS011;65076;52.362;6.588;2023-02-21T10:40:29;32.90;;;15.05;;
76259;SDS011;65076;52.362;6.588;2023-02-21T10:43:06;35.72;;;15.25;;
76259;SDS011;65076;52.362;6.588;2023-02-21T10:45:41;27.60;;;13.45;;
76259;SDS011;65076;52.362;6.588;2023-02-21T10:48:18;27.85;;;12.80;;
76259;SDS011;65076;52.362;6.588;2023-02-21T10:50:48;38.72;;;16.65;;
76259;SDS011;65076;52.362;6.588;2023-02-21T10:53:23;34.20;;;14.63;;
76259;SDS011;65076;52.362;6.588;2023-02-21T10:56:09;33.20;;;15.32;;
76259;SDS011;65076;52.362;6.588;2023-02-21T10:58:51;32.30;;;15.55;;
76259;SDS011;65076;52.362;6.588;2023-02-21T11:01:29;29.42;;;15.23;;
76259;SDS011;65076;52.362;6.588;2023-02-21T11:04:03;34.80;;;15.65;;
76259;SDS011;65076;52.362;6.588;2023-02-21T11:06:35;36.63;;;17.40;;
76259;SDS011;65076;52.362;6.588;2023-02-21T11:12:03;34.78;;;15.85;;
76259;SDS011;65076;52.362;6.588;2023-02-21T11:14:44;33.35;;;15.77;;
76259;SDS011;65076;52.362;6.588;2023-02-21T11:17:42;32.33;;;15.65;;
76259;SDS011;65076;52.362;6.588;2023-02-21T11:22:49;36.70;;;16.23;;
76259;SDS011;65076;52.362;6.588;2023-02-21T11:25:22;35.58;;;16.20;;
76259;SDS011;65076;52.362;6.588;2023-02-21T11:28:01;33.90;;;17.40;;
76259;SDS011;65076;52.362;6.588;2023-02-21T11:30:47;38.20;;;17.00;;
76259;SDS011;65076;52.362;6.588;2023-02-21T11:33:30;33.13;;;15.20;;
76259;SDS011;65076;52.362;6.588;2023-02-21T11:36:08;31.45;;;15.07;;
76259;SDS011;65076;52.362;6.588;2023-02-21T11:38:40;37.95;;;16.48;;
76259;SDS011;65076;52.362;6.588;2023-02-21T11:41:16;30.73;;;14.50;;
76259;SDS011;65076;52.362;6.588;2023-02-21T11:43:50;31.27;;;14.90;;
76259;SDS011;65076;52.362;6.588;2023-02-21T11:46:30;29.77;;;13.90;;
76259;SDS011;65076;52.362;6.588;2023-02-21T11:49:07;34.85;;;15.52;;
76259;SDS011;65076;52.362;6.588;2023-02-21T11:51:48;29.85;;;14.25;;
76259;SDS011;65076;52.362;6.588;2023-02-21T11:54:23;36.47;;;16.33;;
76259;SDS011;65076;52.362;6.588;2023-02-21T11:56:57;32.08;;;14.73;;
76259;SDS011;65076;52.362;6.588;2023-02-21T11:59:34;44.03;;;18.65;;
76259;SDS011;65076;52.362;6.588;2023-02-21T12:02:23;40.88;;;17.13;;
76259;SDS011;65076;52.362;6.588;2023-02-21T12:05:33;43.67;;;18.83;;
76259;SDS011;65076;52.362;6.588;2023-02-21T12:08:23;37.67;;;16.10;;
76259;SDS011;65076;52.362;6.588;2023-02-21T12:11:24;34.00;;;15.30;;
76259;SDS011;65076;52.362;6.588;2023-02-21T12:14:33;38.03;;;16.58;;
76259;SDS011;65076;52.362;6.588;2023-02-21T12:17:23;34.42;;;14.88;;
76259;SDS011;65076;52.362;6.588;2023-02-21T12:20:26;28.00;;;10.45;;
76259;SDS011;65076;52.362;6.588;2023-02-21T12:23:17;37.85;;;15.35;;
76259;SDS011;65076;52.362;6.588;2023-02-21T12:26:03;35.22;;;14.55;;
76259;SDS011;65076;52.362;6.588;2023-02-21T12:28:52;34.08;;;14.40;;
76259;SDS011;65076;52.362;6.588;2023-02-21T12:31:42;39.47;;;16.33;;
76259;SDS011;65076;52.362;6.588;2023-02-21T12:34:35;38.30;;;15.25;;
76259;SDS011;65076;52.362;6.588;2023-02-21T12:37:23;33.72;;;15.68;;
76259;SDS011;65076;52.362;6.588;2023-02-21T12:40:14;37.15;;;15.93;;
76259;SDS011;65076;52.362;6.588;2023-02-21T12:43:04;40.30;;;16.60;;
76259;SDS011;65076;52.362;6.588;2023-02-21T12:45:53;32.28;;;13.30;;
76259;SDS011;65076;52.362;6.588;2023-02-21T12:48:32;37.33;;;15.82;;
76259;SDS011;65076;52.362;6.588;2023-02-21T12:51:10;36.55;;;15.07;;
76259;SDS011;65076;52.362;6.588;2023-02-21T12:53:46;36.95;;;14.68;;
76259;SDS011;65076;52.362;6.588;2023-02-21T12:56:22;35.28;;;14.73;;
76259;SDS011;65076;52.362;6.588;2023-02-21T12:58:58;35.15;;;14.00;;
76259;SDS011;65076;52.362;6.588;2023-02-21T13:01:35;31.38;;;14.70;;
76259;SDS011;65076;52.362;6.588;2023-02-21T13:04:14;38.03;;;16.10;;
76259;SDS011;65076;52.362;6.588;2023-02-21T13:06:57;32.80;;;13.93;;
76259;SDS011;65076;52.362;6.588;2023-02-21T13:09:37;31.85;;;15.10;;
76259;SDS011;65076;52.362;6.588;2023-02-21T13:12:15;31.63;;;13.85;;
76259;SDS011;65076;52.362;6.588;2023-02-21T13:14:52;33.97;;;15.60;;
76259;SDS011;65076;52.362;6.588;2023-02-21T13:17:25;35.65;;;15.35;;
76259;SDS011;65076;52.362;6.588;2023-02-21T13:19:56;32.47;;;14.52;;
76259;SDS011;65076;52.362;6.588;2023-02-21T13:22:32;35.50;;;15.80;;
76259;SDS011;65076;52.362;6.588;2023-02-21T13:25:23;30.83;;;14.32;;
76259;SDS011;65076;52.362;6.588;2023-02-21T13:28:07;35.33;;;14.88;;
76259;SDS011;65076;52.362;6.588;2023-02-21T13:30:44;28.08;;;13.32;;
76259;SDS011;65076;52.362;6.588;2023-02-21T13:33:24;29.63;;;13.52;;
76259;SDS011;65076;52.362;6.588;2023-02-21T13:35:57;31.30;;;13.80;;
76259;SDS011;65076;52.362;6.588;2023-02-21T13:38:28;31.83;;;14.40;;
76259;SDS011;65076;52.362;6.588;2023-02-21T13:41:03;28.73;;;13.77;;
76259;SDS011;65076;52.362;6.588;2023-02-21T13:43:36;30.00;;;13.60;;
76259;SDS011;65076;52.362;6.588;2023-02-21T13:49:38;24.75;;;12.10;;
76259;SDS011;65076;52.362;6.588;2023-02-21T13:58:44;25.13;;;12.68;;
76259;SDS011;65076;52.362;6.588;2023-02-21T14:01:14;28.77;;;13.68;;
76259;SDS011;65076;52.362;6.588;2023-02-21T14:10:39;29.20;;;12.70;;
76259;SDS011;65076;52.362;6.588;2023-02-21T14:13:20;31.45;;;12.15;;
76259;SDS011;65076;52.362;6.588;2023-02-21T14:15:58;30.70;;;13.18;;
76259;SDS011;65076;52.362;6.588;2023-02-21T14:18:38;29.88;;;13.05;;
76259;SDS011;65076;52.362;6.588;2023-02-21T14:21:13;31.35;;;13.55;;
76259;SDS011;65076;52.362;6.588;2023-02-21T14:23:54;31.60;;;13.75;;
76259;SDS011;65076;52.362;6.588;2023-02-21T14:26:34;23.10;;;12.25;;
76259;SDS011;65076;52.362;6.588;2023-02-21T14:34:58;29.65;;;13.93;;
76259;SDS011;65076;52.362;6.588;2023-02-21T14:37:40;30.40;;;12.73;;
76259;SDS011;65076;52.362;6.588;2023-02-21T14:40:20;28.20;;;12.00;;
76259;SDS011;65076;52.362;6.588;2023-02-21T14:43:08;25.13;;;10.82;;
76259;SDS011;65076;52.362;6.588;2023-02-21T14:46:26;28.67;;;12.93;;
76259;SDS011;65076;52.362;6.588;2023-02-21T14:52:51;24.50;;;11.73;;
76259;SDS011;65076;52.362;6.588;2023-02-21T14:55:49;25.55;;;11.48;;
76259;SDS011;65076;52.362;6.588;2023-02-21T14:59:02;25.83;;;12.00;;
76259;SDS011;65076;52.362;6.588;2023-02-21T15:01:57;26.92;;;13.05;;
76259;SDS011;65076;52.362;6.588;2023-02-21T15:04:40;25.13;;;11.43;;
76259;SDS011;65076;52.362;6.588;2023-02-21T15:07:17;31.75;;;14.95;;
76259;SDS011;65076;52.362;6.588;2023-02-21T15:10:05;25.35;;;12.43;;
76259;SDS011;65076;52.362;6.588;2023-02-21T15:12:41;26.70;;;10.45;;
76259;SDS011;65076;52.362;6.588;2023-02-21T15:15:15;27.42;;;12.18;;
76259;SDS011;65076;52.362;6.588;2023-02-21T15:18:00;22.23;;;10.80;;
76259;SDS011;65076;52.362;6.588;2023-02-21T15:20:32;21.63;;;10.63;;
76259;SDS011;65076;52.362;6.588;2023-02-21T15:23:11;23.92;;;11.55;;
76259;SDS011;65076;52.362;6.588;2023-02-21T15:25:42;30.02;;;14.88;;
76259;SDS011;65076;52.362;6.588;2023-02-21T15:28:21;22.70;;;10.63;;
76259;SDS011;65076;52.362;6.588;2023-02-21T15:30:59;26.10;;;12.13;;
76259;SDS011;65076;52.362;6.588;2023-02-21T15:33:32;33.38;;;18.55;;
76259;SDS011;65076;52.362;6.588;2023-02-21T15:36:04;24.92;;;12.65;;
76259;SDS011;65076;52.362;6.588;2023-02-21T15:38:36;21.05;;;10.02;;
76259;SDS011;65076;52.362;6.588;2023-02-21T15:41:13;24.48;;;12.60;;
76259;SDS011;65076;52.362;6.588;2023-02-21T15:43:59;31.08;;;19.30;;
76259;SDS011;65076;52.362;6.588;2023-02-21T15:46:36;30.38;;;17.42;;
76259;SDS011;65076;52.362;6.588;2023-02-21T15:49:15;36.30;;;20.58;;
76259;SDS011;65076;52.362;6.588;2023-02-21T15:51:48;67.72;;;34.10;;
76259;SDS011;65076;52.362;6.588;2023-02-21T15:54:21;59.28;;;31.30;;
76259;SDS011;65076;52.362;6.588;2023-02-21T15:57:03;31.75;;;15.90;;
76259;SDS011;65076;52.362;6.588;2023-02-21T15:59:49;52.42;;;30.67;;
76259;SDS011;65076;52.362;6.588;2023-02-21T16:02:43;38.75;;;23.63;;
76259;SDS011;65076;52.362;6.588;2023-02-21T16:05:22;16.45;;;9.10;;
76259;SDS011;65076;52.362;6.588;2023-02-21T16:07:58;10.52;;;5.07;;